Herve, Belgium
Current Conditions -  °F | °C
As of 12:20 PM on Saturday 25 Oct 2014 (Local Time) from EBLG Reporting Station
Broken Clouds Broken Clouds  
Wind Chill: 55°   Ceiling: 600
Heat Index: 55°   Visibility: 5mi
Dew Point: 52°   Wind: 8mph
Humidity: 88%   Direction: 200°SSW
Pressure: 30.12"   Gusts: NA
Location:  50.64°N, 5.79°E
Report Text: EBLG 251020Z 20007KT 8000 SCT005 BKN006 13/11 Q1020 TEMPO BKN005
Loading
Personal Weather Stations






























Interactive Weather Map
Tropical Storm Tracking
New forecast layout! Learn more

10-Day Weather Forecast

Advertisements
Track Severe Weather on mobile